Corrigan, TX (75939)

5:04 PM CDT on March 27, 2017 (GMT -0500)
Colita | | Change Station

Elev 328 ft 30.88 °N, 94.99 °W | Updated 13 minutes ago

Partly Cloudy
Partly Cloudy
81.6 °F
Feels Like 85 °F
N
0.0
Wind Variable Wind from WSW
Gusts 1.0 mph

Today
High -- | Low -- °F
--% Chance of Precip.
Yesterday
High -- | Low -- °F
Precip. -- in
Pressure 29.83 in
Visibility 10.0 miles
Clouds Scattered Clouds 3400 ft
Mostly Cloudy 6500 ft
Heat Index 85 °F
Dew Point 69 °F
Humidity 65%
Rainfall 0.00 in
Snow Depth Not available.
7:14 AM 7:35 PM
Waning Crescent, 0% visible
METAR KLFK 272153Z AUTO 21006KT 10SM SCT034 BKN065 27/18 A2984 RMK AO2 SLP101 T02720183
Pressure 29.83 in
Visibility 10.0 miles
Clouds Scattered Clouds 3400 ft
Mostly Cloudy 6500 ft
Heat Index 85 °F
Dew Point 69 °F
Humidity 65%
Rainfall 0.00 in
Snow Depth Not available.
7:14 AM 7:35 PM
Waning Crescent, 0% visible
METAR KLFK 272153Z AUTO 21006KT 10SM SCT034 BKN065 27/18 A2984 RMK AO2 SLP101 T02720183

Get Severe Weather Alerts

Thanks for signing up!

Be on the lookout for a verification email in your inbox.

You'll start receiving the daily forecast at 8 AM.

×

10-Day Weather Forecast

Almanac

Astronomy

Mar. 27, 2017 Rise Set
Actual Time
Civil Twilight
Nautical Twilight
Astronomical Twilight
Moon
Length of Visible Light
Length of Day
Tomorrow will be .
, % of the Moon is Illuminated

Today's Extremes

State Highs State Lows

Community

WunderPhotos

Upload Photos

1,962,540 photos uploaded!

WunderBlog® & News

Nearby

Air Quality

  Air Quality AQ Index Pollutant
Not available.

Snow Depth

Station Depth Elevation

Earthquake Activity

City Distance Mag. Time & Date
Minimum magnitude displayed is 2.5.

Earthquake Activity

City Distance Mag. Time & Date
Minimum magnitude displayed is 2.5.

Coastal Water Temperatures

Place Temperature

Stations

Nearby Weather Stations

Station Location Temp. Windchill Dew Point Humidity Wind Precip. Elev Updated Type
                   

Watches & Warnings

There are currently no watches in effect.